Time,TemperatureF,DewpointF,PressureIn,WindDirection,WindDirectionDegrees,WindSpeedMPH,WindSpeedGustMPH,Humidity,HourlyPrecipIn,Conditions,Clouds,dailyrainin,SoftwareType,DateUTC
2013-03-09 00:00:00,40.0,36.1,26.79,SE,135,0.0,6.0,86,0.00,,,0.00,Weather View 32 v70,2013-03-09 07:00:00,
2013-03-09 00:10:00,41.0,37.1,26.79,SSE,157,0.0,5.0,86,0.01,,,0.01,Weather View 32 v70,2013-03-09 07:10:00,
2013-03-09 00:20:00,40.0,36.1,26.79,South,180,0.0,4.0,86,0.01,,,0.01,Weather View 32 v70,2013-03-09 07:20:00,
2013-03-09 00:28:00,40.0,36.1,26.79,South,180,0.0,4.0,86,0.01,,,0.01,Weather View 32 v70,2013-03-09 07:28:00,
2013-03-09 00:40:00,40.0,36.1,26.80,SE,135,0.0,0.0,86,0.01,,,0.01,Weather View 32 v70,2013-03-09 07:40:00,
2013-03-09 00:50:00,40.0,36.1,26.80,SE,135,0.0,0.0,86,0.01,,,0.01,Weather View 32 v70,2013-03-09 07:50:00,
2013-03-09 01:00:00,40.0,36.1,26.81,ESE,112,0.0,0.0,86,0.01,,,0.01,Weather View 32 v70,2013-03-09 08:00:00,
2013-03-09 01:10:00,40.0,36.1,26.81,South,180,0.0,0.0,86,0.00,,,0.01,Weather View 32 v70,2013-03-09 08:10:00,
2013-03-09 01:20:00,41.0,35.6,26.81,South,180,0.0,0.0,81,0.00,,,0.01,Weather View 32 v70,2013-03-09 08:20:00,
2013-03-09 01:28:00,41.0,35.6,26.81,South,180,0.0,0.0,81,0.00,,,0.01,Weather View 32 v70,2013-03-09 08:28:00,
2013-03-09 01:40:00,41.0,35.0,26.80,SE,135,0.0,7.0,79,0.00,,,0.01,Weather View 32 v70,2013-03-09 08:40:00,
2013-03-09 01:50:00,41.0,35.0,26.81,SSW,202,0.0,7.0,79,0.00,,,0.01,Weather View 32 v70,2013-03-09 08:50:00,
2013-03-09 02:00:00,41.0,33.7,26.80,South,180,3.0,8.0,75,0.01,,,0.02,Weather View 32 v70,2013-03-09 09:00:00,
2013-03-09 02:10:00,41.0,33.7,26.80,SSE,157,0.0,8.0,75,0.01,,,0.02,Weather View 32 v70,2013-03-09 09:10:00,
2013-03-09 02:20:00,41.0,34.0,26.79,South,180,0.0,8.0,76,0.01,,,0.02,Weather View 32 v70,2013-03-09 09:20:00,
2013-03-09 02:29:00,41.0,34.0,26.79,South,180,0.0,8.0,76,0.01,,,0.02,Weather View 32 v70,2013-03-09 09:29:00,
2013-03-09 02:40:00,41.0,34.3,26.79,SW,225,0.0,8.0,77,0.01,,,0.02,Weather View 32 v70,2013-03-09 09:40:00,
2013-03-09 02:50:00,41.0,34.3,26.79,SSW,202,0.0,8.0,77,0.01,,,0.02,Weather View 32 v70,2013-03-09 09:50:00,
2013-03-09 03:00:00,41.0,35.0,26.79,South,180,0.0,7.0,79,0.00,,,0.02,Weather View 32 v70,2013-03-09 10:00:00,
2013-03-09 03:10:00,41.0,35.0,26.79,South,180,0.0,7.0,79,0.00,,,0.02,Weather View 32 v70,2013-03-09 10:10:00,
2013-03-09 03:20:00,41.0,35.3,26.79,SSE,157,2.0,7.0,80,0.00,,,0.02,Weather View 32 v70,2013-03-09 10:20:00,
2013-03-09 03:29:00,41.0,35.3,26.79,SSE,157,2.0,7.0,80,0.00,,,0.02,Weather View 32 v70,2013-03-09 10:29:00,
2013-03-09 03:40:00,40.0,34.9,26.79,NW,315,0.0,7.0,82,0.00,,,0.02,Weather View 32 v70,2013-03-09 10:40:00,
2013-03-09 03:50:00,39.0,33.7,26.80,NW,315,0.0,7.0,81,0.00,,,0.02,Weather View 32 v70,2013-03-09 10:50:00,
2013-03-09 04:00:00,38.0,32.7,26.80,NE,45,0.0,7.0,81,0.00,,,0.02,Weather View 32 v70,2013-03-09 11:00:00,
2013-03-09 04:10:00,37.0,33.2,26.80,SE,135,0.0,5.0,86,0.00,,,0.02,Weather View 32 v70,2013-03-09 11:10:00,
2013-03-09 04:20:00,37.0,33.5,26.81,WSW,247,1.0,7.0,87,0.01,,,0.03,Weather View 32 v70,2013-03-09 11:20:00,
2013-03-09 04:30:00,37.0,34.6,26.81,SSW,202,1.0,12.0,91,0.01,,,0.03,Weather View 32 v70,2013-03-09 11:30:00,
2013-03-09 04:40:00,37.0,34.6,26.81,SSW,202,0.0,12.0,91,0.01,,,0.03,Weather View 32 v70,2013-03-09 11:40:00,
2013-03-09 04:50:00,37.0,34.6,26.81,SE,135,1.0,12.0,91,0.01,,,0.03,Weather View 32 v70,2013-03-09 11:50:00,
2013-03-09 05:00:00,37.0,34.9,26.81,SE,135,0.0,12.0,92,0.01,,,0.03,Weather View 32 v70,2013-03-09 12:00:00,
2013-03-09 05:10:00,37.0,34.6,26.81,SE,135,0.0,12.0,91,0.01,,,0.03,Weather View 32 v70,2013-03-09 12:10:00,
2013-03-09 05:20:00,37.0,34.6,26.82,SSW,202,6.0,17.0,91,0.00,,,0.03,Weather View 32 v70,2013-03-09 12:20:00,
2013-03-09 05:30:00,37.0,34.6,26.83,East,90,0.0,17.0,91,0.00,,,0.03,Weather View 32 v70,2013-03-09 12:30:00,
2013-03-09 05:40:00,36.0,33.6,26.82,East,90,1.0,17.0,91,0.00,,,0.03,Weather View 32 v70,2013-03-09 12:40:00,
2013-03-09 05:50:00,36.0,33.6,26.82,SE,135,4.0,17.0,91,0.00,,,0.03,Weather View 32 v70,2013-03-09 12:50:00,
2013-03-09 06:00:00,36.0,33.9,26.82,SE,135,0.0,17.0,92,0.00,,,0.03,Weather View 32 v70,2013-03-09 13:00:00,
2013-03-09 06:10:00,36.0,34.2,26.82,SSW,202,0.0,17.0,93,0.00,,,0.03,Weather View 32 v70,2013-03-09 13:10:00,
2013-03-09 06:20:00,37.0,35.2,26.83,SE,135,0.0,11.0,93,0.00,,,0.03,Weather View 32 v70,2013-03-09 13:20:00,
2013-03-09 06:30:00,37.0,35.2,26.83,South,180,0.0,11.0,93,0.00,,,0.03,Weather View 32 v70,2013-03-09 13:30:00,
2013-03-09 06:40:00,37.0,35.2,26.82,SSW,202,0.0,11.0,93,0.00,,,0.03,Weather View 32 v70,2013-03-09 13:40:00,
2013-03-09 06:50:00,38.0,36.2,26.83,SSW,202,0.0,10.0,93,0.00,,,0.03,Weather View 32 v70,2013-03-09 13:50:00,
2013-03-09 07:00:00,37.0,35.2,26.82,SE,135,2.0,5.0,93,0.00,,,0.03,Weather View 32 v70,2013-03-09 14:00:00,
2013-03-09 07:10:00,37.0,35.2,26.83,SE,135,0.0,5.0,93,0.01,,,0.04,Weather View 32 v70,2013-03-09 14:10:00,
2013-03-09 07:20:00,38.0,36.2,26.83,SSE,157,0.0,5.0,93,0.01,,,0.04,Weather View 32 v70,2013-03-09 14:20:00,
2013-03-09 07:30:00,38.0,36.2,26.83,ESE,112,4.0,5.0,93,0.01,,,0.04,Weather View 32 v70,2013-03-09 14:30:00,
2013-03-09 07:40:00,38.0,36.2,26.84,SE,135,0.0,7.0,93,0.01,,,0.04,Weather View 32 v70,2013-03-09 14:40:00,
2013-03-09 07:50:00,38.0,36.2,26.84,ESE,112,0.0,7.0,93,0.01,,,0.04,Weather View 32 v70,2013-03-09 14:50:00,
2013-03-09 08:00:00,38.0,36.2,26.84,SSE,157,0.0,7.0,93,0.01,,,0.04,Weather View 32 v70,2013-03-09 15:00:00,
2013-03-09 08:10:00,39.0,37.1,26.84,SSE,157,0.0,7.0,93,0.00,,,0.04,Weather View 32 v70,2013-03-09 15:10:00,
2013-03-09 08:20:00,39.0,37.1,26.85,South,180,3.0,7.0,93,0.00,,,0.04,Weather View 32 v70,2013-03-09 15:20:00,
2013-03-09 08:30:00,39.0,36.3,26.84,South,180,0.0,7.0,90,0.00,,,0.04,Weather View 32 v70,2013-03-09 15:30:00,
2013-03-09 08:40:00,40.0,36.7,26.85,SSW,202,0.0,6.0,88,0.00,,,0.04,Weather View 32 v70,2013-03-09 15:40:00,
2013-03-09 08:50:00,40.0,37.0,26.85,SSE,157,0.0,6.0,89,0.00,,,0.04,Weather View 32 v70,2013-03-09 15:50:00,
2013-03-09 09:00:00,40.0,37.0,26.85,SSE,157,0.0,6.0,89,0.00,,,0.04,Weather View 32 v70,2013-03-09 16:00:00,
2013-03-09 09:10:00,40.0,37.0,26.85,SE,135,0.0,6.0,89,0.00,,,0.04,Weather View 32 v70,2013-03-09 16:10:00,
2013-03-09 09:20:00,41.0,38.3,26.85,SE,135,0.0,7.0,90,0.00,,,0.04,Weather View 32 v70,2013-03-09 16:20:00,
2013-03-09 09:29:00,41.0,38.0,26.85,ESE,112,4.0,8.0,89,0.00,,,0.04,Weather View 32 v70,2013-03-09 16:29:00,
2013-03-09 09:40:00,41.0,37.1,26.86,SE,135,1.0,8.0,86,0.01,,,0.05,Weather View 32 v70,2013-03-09 16:40:00,
2013-03-09 09:50:00,41.0,36.8,26.85,SSW,202,0.0,8.0,85,0.01,,,0.05,Weather View 32 v70,2013-03-09 16:50:00,
2013-03-09 10:00:00,42.0,37.8,26.85,SSE,157,0.0,8.0,85,0.01,,,0.05,Weather View 32 v70,2013-03-09 17:00:00,
2013-03-09 10:10:00,42.0,36.6,26.85,South,180,3.0,9.0,81,0.01,,,0.05,Weather View 32 v70,2013-03-09 17:10:00,
2013-03-09 10:20:00,42.0,36.6,26.85,SSE,157,0.0,9.0,81,0.01,,,0.05,Weather View 32 v70,2013-03-09 17:20:00,
2013-03-09 10:30:00,42.0,35.6,26.85,SSE,157,5.0,9.0,78,0.01,,,0.05,Weather View 32 v70,2013-03-09 17:30:00,
2013-03-09 10:40:00,42.0,34.6,26.85,SSW,202,9.0,11.0,75,0.00,,,0.05,Weather View 32 v70,2013-03-09 17:40:00,
2013-03-09 10:50:00,42.0,35.0,26.85,South,180,0.0,11.0,76,0.00,,,0.05,Weather View 32 v70,2013-03-09 17:50:00,
2013-03-09 10:59:00,42.0,34.3,26.85,South,180,5.0,11.0,74,0.00,,,0.05,Weather View 32 v70,2013-03-09 17:59:00,
2013-03-09 11:09:00,42.0,33.3,26.85,SSW,202,1.0,11.0,71,0.00,,,0.05,Weather View 32 v70,2013-03-09 18:09:00,
2013-03-09 11:19:00,43.0,34.6,26.85,SSW,202,1.0,11.0,72,0.00,,,0.05,Weather View 32 v70,2013-03-09 18:19:00,
2013-03-09 11:29:00,43.0,34.6,26.85,SSW,202,5.0,14.0,72,0.00,,,0.05,Weather View 32 v70,2013-03-09 18:29:00,
2013-03-09 11:39:00,43.0,35.3,26.85,South,180,7.0,14.0,74,0.00,,,0.05,Weather View 32 v70,2013-03-09 18:39:00,
2013-03-09 11:49:00,42.0,37.2,26.87,South,180,8.0,14.0,83,0.00,,,0.05,Weather View 32 v70,2013-03-09 18:49:00,
2013-03-09 11:59:00,41.0,35.9,26.86,ESE,112,3.0,14.0,82,0.00,,,0.05,Weather View 32 v70,2013-03-09 18:59:00,
2013-03-09 12:09:00,41.0,36.2,26.86,ENE,67,3.0,14.0,83,0.00,,,0.05,Weather View 32 v70,2013-03-09 19:09:00,
2013-03-09 12:19:00,41.0,36.8,26.86,East,90,2.0,14.0,85,0.00,,,0.05,Weather View 32 v70,2013-03-09 19:19:00,
2013-03-09 12:29:00,41.0,37.1,26.85,East,90,5.0,11.0,86,0.00,,,0.05,Weather View 32 v70,2013-03-09 19:29:00,
2013-03-09 12:39:00,41.0,36.2,26.85,SE,135,4.0,11.0,83,0.00,,,0.05,Weather View 32 v70,2013-03-09 19:39:00,
2013-03-09 12:49:00,42.0,37.2,26.85,SE,135,4.0,11.0,83,0.00,,,0.05,Weather View 32 v70,2013-03-09 19:49:00,
2013-03-09 12:59:00,42.0,36.9,26.85,East,90,4.0,11.0,82,0.00,,,0.05,Weather View 32 v70,2013-03-09 19:59:00,
2013-03-09 13:09:00,42.0,36.6,26.85,ESE,112,3.0,11.0,81,0.00,,,0.05,Weather View 32 v70,2013-03-09 20:09:00,
2013-03-09 13:19:00,42.0,36.6,26.84,SE,135,4.0,11.0,81,0.01,,,0.06,Weather View 32 v70,2013-03-09 20:19:00,
2013-03-09 13:29:00,43.0,37.2,26.84,SE,135,3.0,11.0,80,0.01,,,0.06,Weather View 32 v70,2013-03-09 20:29:00,
2013-03-09 13:35:00,43.0,37.2,26.84,SE,135,3.0,11.0,80,0.01,,,0.06,Weather View 32 v70,2013-03-09 20:35:00,
2013-03-09 13:49:00,43.0,36.6,26.83,SE,135,0.0,10.0,78,0.01,,,0.06,Weather View 32 v70,2013-03-09 20:49:00,
2013-03-09 13:59:00,43.0,36.9,26.83,East,90,0.0,10.0,79,0.01,,,0.06,Weather View 32 v70,2013-03-09 20:59:00,
2013-03-09 14:09:00,43.0,37.2,26.83,SE,135,0.0,10.0,80,0.01,,,0.06,Weather View 32 v70,2013-03-09 21:09:00,
2013-03-09 14:19:00,43.0,37.6,26.83,SE,135,1.0,10.0,81,0.00,,,0.06,Weather View 32 v70,2013-03-09 21:19:00,
2013-03-09 14:29:00,43.0,36.3,26.83,SE,135,0.0,10.0,77,0.00,,,0.06,Weather View 32 v70,2013-03-09 21:29:00,
2013-03-09 14:35:00,43.0,36.3,26.83,SE,135,0.0,10.0,77,0.00,,,0.06,Weather View 32 v70,2013-03-09 21:35:00,
2013-03-09 14:50:00,43.0,35.9,26.83,ESE,112,3.0,10.0,76,0.00,,,0.06,Weather View 32 v70,2013-03-09 21:50:00,
2013-03-09 15:00:00,43.0,35.9,26.83,SE,135,4.0,9.0,76,0.00,,,0.06,Weather View 32 v70,2013-03-09 22:00:00,
2013-03-09 15:10:00,43.0,36.3,26.83,ENE,67,0.0,9.0,77,0.00,,,0.06,Weather View 32 v70,2013-03-09 22:10:00,
2013-03-09 15:20:00,43.0,36.6,26.84,SE,135,0.0,9.0,78,0.00,,,0.06,Weather View 32 v70,2013-03-09 22:20:00,
2013-03-09 15:30:00,43.0,38.2,26.84,South,180,0.0,9.0,83,0.00,,,0.06,Weather View 32 v70,2013-03-09 22:30:00,
2013-03-09 15:36:00,43.0,38.2,26.84,South,180,0.0,9.0,83,0.00,,,0.06,Weather View 32 v70,2013-03-09 22:36:00,
2013-03-09 15:49:00,43.0,37.2,26.84,South,180,3.0,9.0,80,0.00,,,0.06,Weather View 32 v70,2013-03-09 22:49:00,
2013-03-09 16:00:00,44.0,37.9,26.84,SSE,157,3.0,9.0,79,0.00,,,0.06,Weather View 32 v70,2013-03-09 23:00:00,
2013-03-09 16:09:00,45.0,38.5,26.83,SE,135,0.0,9.0,78,0.00,,,0.06,Weather View 32 v70,2013-03-09 23:09:00,
2013-03-09 16:19:00,45.0,37.9,26.83,SSE,157,0.0,9.0,76,0.00,,,0.06,Weather View 32 v70,2013-03-09 23:19:00,
2013-03-09 16:29:00,46.0,37.1,26.83,SE,135,3.0,9.0,71,0.00,,,0.06,Weather View 32 v70,2013-03-09 23:29:00,
2013-03-09 16:36:00,46.0,37.1,26.83,SE,135,3.0,9.0,71,0.00,,,0.06,Weather View 32 v70,2013-03-09 23:36:00,
2013-03-09 16:49:00,46.0,37.1,26.83,ESE,112,0.0,8.0,71,0.00,,,0.06,Weather View 32 v70,2013-03-09 23:49:00,
2013-03-09 16:59:00,46.0,37.1,26.84,South,180,0.0,7.0,71,0.00,,,0.06,Weather View 32 v70,2013-03-09 23:59:00,
2013-03-09 17:09:00,46.0,36.4,26.84,SSW,202,0.0,7.0,69,0.00,,,0.06,Weather View 32 v70,2013-03-10 00:09:00,
2013-03-09 17:19:00,46.0,36.4,26.84,South,180,0.0,7.0,69,0.00,,,0.06,Weather View 32 v70,2013-03-10 00:19:00,
2013-03-09 17:29:00,45.0,36.9,26.85,South,180,0.0,7.0,73,0.00,,,0.06,Weather View 32 v70,2013-03-10 00:29:00,
2013-03-09 17:37:00,45.0,36.9,26.85,South,180,0.0,7.0,73,0.00,,,0.06,Weather View 32 v70,2013-03-10 00:37:00,
2013-03-09 17:49:00,45.0,36.2,26.85,SW,225,0.0,5.0,71,0.00,,,0.06,Weather View 32 v70,2013-03-10 00:49:00,
2013-03-09 17:59:00,45.0,35.4,26.85,SW,225,0.0,4.0,69,0.00,,,0.06,Weather View 32 v70,2013-03-10 00:59:00,
2013-03-09 18:09:00,45.0,36.5,26.85,SW,225,0.0,4.0,72,0.00,,,0.06,Weather View 32 v70,2013-03-10 01:09:00,
2013-03-09 18:19:00,45.0,36.5,26.85,SW,225,0.0,4.0,72,0.00,,,0.06,Weather View 32 v70,2013-03-10 01:19:00,
2013-03-09 18:29:00,45.0,36.9,26.86,SW,225,0.0,4.0,73,0.00,,,0.06,Weather View 32 v70,2013-03-10 01:29:00,
2013-03-09 18:37:00,45.0,36.9,26.86,SW,225,0.0,4.0,73,0.00,,,0.06,Weather View 32 v70,2013-03-10 01:37:00,
2013-03-09 18:49:00,44.0,36.6,26.86,SW,225,0.0,0.0,75,0.00,,,0.06,Weather View 32 v70,2013-03-10 01:49:00,
2013-03-09 19:00:00,44.0,36.9,26.87,SW,225,0.0,0.0,76,0.00,,,0.06,Weather View 32 v70,2013-03-10 02:00:00,
2013-03-09 19:09:00,44.0,37.2,26.87,NE,45,0.0,0.0,77,0.00,,,0.06,Weather View 32 v70,2013-03-10 02:09:00,
2013-03-09 19:19:00,44.0,37.2,26.87,NE,45,0.0,0.0,77,0.00,,,0.06,Weather View 32 v70,2013-03-10 02:19:00,
2013-03-09 19:29:00,44.0,36.6,26.87,NE,45,0.0,0.0,75,0.00,,,0.06,Weather View 32 v70,2013-03-10 02:29:00,
2013-03-09 19:38:00,44.0,36.6,26.87,NE,45,0.0,0.0,75,0.00,,,0.06,Weather View 32 v70,2013-03-10 02:38:00,
2013-03-09 19:49:00,44.0,36.6,26.88,North,360,0.0,0.0,75,0.00,,,0.06,Weather View 32 v70,2013-03-10 02:49:00,
2013-03-09 19:59:00,44.0,36.6,26.88,North,360,0.0,0.0,75,0.00,,,0.06,Weather View 32 v70,2013-03-10 02:59:00,
2013-03-09 20:10:00,44.0,35.5,26.88,NNE,22,0.0,0.0,72,0.00,,,0.06,Weather View 32 v70,2013-03-10 03:10:00,
2013-03-09 20:19:00,44.0,35.2,26.88,East,90,0.0,0.0,71,0.00,,,0.06,Weather View 32 v70,2013-03-10 03:19:00,
2013-03-09 20:29:00,44.0,34.8,26.88,ENE,67,0.0,0.0,70,0.00,,,0.06,Weather View 32 v70,2013-03-10 03:29:00,
2013-03-09 20:38:00,44.0,34.8,26.88,ENE,67,0.0,0.0,70,0.00,,,0.06,Weather View 32 v70,2013-03-10 03:38:00,
2013-03-09 20:49:00,44.0,34.1,26.88,NNE,22,0.0,0.0,68,0.00,,,0.06,Weather View 32 v70,2013-03-10 03:49:00,
2013-03-09 20:59:00,43.0,34.2,26.88,NE,45,0.0,0.0,71,0.00,,,0.06,Weather View 32 v70,2013-03-10 03:59:00,
2013-03-09 21:09:00,43.0,33.9,26.88,NE,45,0.0,0.0,70,0.00,,,0.06,Weather View 32 v70,2013-03-10 04:09:00,
2013-03-09 21:19:00,43.0,34.6,26.88,NNE,22,0.0,5.0,72,0.00,,,0.06,Weather View 32 v70,2013-03-10 04:19:00,
2013-03-09 21:29:00,43.0,34.6,26.88,NNE,22,0.0,5.0,72,0.00,,,0.06,Weather View 32 v70,2013-03-10 04:29:00,
2013-03-09 21:39:00,43.0,34.6,26.88,NNE,22,0.0,5.0,72,0.00,,,0.06,Weather View 32 v70,2013-03-10 04:39:00,
2013-03-09 21:49:00,43.0,34.6,26.88,NE,45,0.0,5.0,72,0.00,,,0.06,Weather View 32 v70,2013-03-10 04:49:00,
2013-03-09 21:59:00,43.0,35.3,26.88,ENE,67,0.0,5.0,74,0.00,,,0.06,Weather View 32 v70,2013-03-10 04:59:00,
2013-03-09 22:09:00,43.0,35.3,26.88,NE,45,0.0,5.0,74,0.00,,,0.06,Weather View 32 v70,2013-03-10 05:09:00,
2013-03-09 22:19:00,43.0,35.3,26.88,NNE,22,0.0,5.0,74,0.00,,,0.06,Weather View 32 v70,2013-03-10 05:19:00,
2013-03-09 22:29:00,43.0,34.9,26.89,NE,45,0.0,4.0,73,0.00,,,0.06,Weather View 32 v70,2013-03-10 05:29:00,
2013-03-09 22:40:00,43.0,34.6,26.89,NE,45,0.0,4.0,72,0.00,,,0.06,Weather View 32 v70,2013-03-10 05:40:00,
2013-03-09 22:49:00,44.0,36.2,26.89,North,360,0.0,3.0,74,0.00,,,0.06,Weather View 32 v70,2013-03-10 05:49:00,
2013-03-09 22:59:00,43.0,35.6,26.89,NNW,337,0.0,0.0,75,0.00,,,0.06,Weather View 32 v70,2013-03-10 05:59:00,
2013-03-09 23:09:00,43.0,35.6,26.89,NNW,337,0.0,0.0,75,0.00,,,0.06,Weather View 32 v70,2013-03-10 06:09:00,
2013-03-09 23:19:00,43.0,35.9,26.88,NNW,337,0.0,0.0,76,0.00,,,0.06,Weather View 32 v70,2013-03-10 06:19:00,
2013-03-09 23:29:00,43.0,35.9,26.88,NE,45,0.0,0.0,76,0.00,,,0.06,Weather View 32 v70,2013-03-10 06:29:00,
2013-03-09 23:39:00,43.0,36.3,26.88,NNW,337,0.0,0.0,77,0.00,,,0.06,Weather View 32 v70,2013-03-10 06:39:00,
2013-03-09 23:49:00,43.0,35.3,26.88,ENE,67,0.0,3.0,74,0.00,,,0.06,Weather View 32 v70,2013-03-10 06:49:00,
2013-03-09 23:59:00,44.0,35.5,26.88,NNE,22,0.0,3.0,72,0.00,,,0.00,Weather View 32 v70,2013-03-10 06:59:00,